Time;durP1;ratioP1;P1;durP2;ratioP2;P2;SDS_P1;SDS_P2;PMS_P1;PMS_P2;Temp;Humidity;BMP_temperature;BMP_pressure;BME280_temperature;BME280_humidity;BME280_pressure;Samples;Min_cycle;Max_cycle;Signal;HPM_P1;HPM_P2
2023/01/31 00:00:45;;;;;;;19.02;6.55;;;;;;;;;;5033945;28;20078;-38
2023/01/31 00:03:10;;;;;;;13.82;7.85;;;;;;;;;;5033286;28;20026;-38
2023/01/31 00:05:35;;;;;;;18.85;9.50;;;;;;;;;;5033281;28;20021;-38
2023/01/31 00:08:01;;;;;;;17.83;8.90;;;;;;;;;;5033784;28;20032;-38
2023/01/31 00:10:26;;;;;;;11.75;6.95;;;;;;;;;;5032429;28;20527;-38
2023/01/31 00:12:52;;;;;;;21.15;7.88;;;;;;;;;;5033598;28;20030;-38
2023/01/31 00:15:17;;;;;;;12.40;6.00;;;;;;;;;;5033474;28;20108;-38
2023/01/31 00:17:43;;;;;;;16.33;6.30;;;;;;;;;;5033418;28;20080;-38
2023/01/31 00:20:08;;;;;;;11.35;6.90;;;;;;;;;;5033483;28;20041;-38
2023/01/31 00:22:34;;;;;;;9.85;5.38;;;;;;;;;;5033214;28;20400;-38
2023/01/31 00:24:59;;;;;;;10.13;5.30;;;;;;;;;;5033546;28;20029;-38
2023/01/31 00:27:24;;;;;;;8.00;2.47;;;;;;;;;;5033342;28;20029;-38
2023/01/31 00:29:50;;;;;;;10.48;6.13;;;;;;;;;;5032037;28;20035;-38
2023/01/31 00:32:16;;;;;;;12.70;5.28;;;;;;;;;;5033572;28;20026;-38
2023/01/31 00:34:41;;;;;;;5.32;3.00;;;;;;;;;;5033170;28;20427;-38
2023/01/31 00:37:07;;;;;;;6.78;2.90;;;;;;;;;;5033164;28;20033;-38
2023/01/31 00:39:32;;;;;;;9.88;4.72;;;;;;;;;;5033193;28;20074;-38
2023/01/31 00:41:57;;;;;;;4.43;3.13;;;;;;;;;;5065022;28;20026;-38
2023/01/31 00:44:23;;;;;;;9.00;3.20;;;;;;;;;;5033153;28;20014;-38
2023/01/31 00:46:48;;;;;;;10.07;3.40;;;;;;;;;;5031654;28;20021;-39
2023/01/31 00:49:14;;;;;;;8.93;4.22;;;;;;;;;;5033056;28;20029;-38
2023/01/31 00:51:39;;;;;;;4.20;3.08;;;;;;;;;;5015086;28;20087;-38
2023/01/31 00:54:04;;;;;;;3.60;3.03;;;;;;;;;;5033089;28;20041;-38
2023/01/31 00:56:30;;;;;;;6.85;2.40;;;;;;;;;;5064814;28;20131;-38
2023/01/31 00:58:56;;;;;;;6.82;3.28;;;;;;;;;;5032747;28;20028;-38
2023/01/31 01:01:23;;;;;;;4.20;3.17;;;;;;;;;;5032825;28;20026;-38
2023/01/31 01:03:50;;;;;;;4.35;3.00;;;;;;;;;;5031363;28;20443;-40
2023/01/31 01:06:15;;;;;;;4.80;2.90;;;;;;;;;;5048047;28;20064;-38
2023/01/31 01:08:41;;;;;;;7.47;2.88;;;;;;;;;;5032544;28;20022;-38
2023/01/31 01:11:12;;;;;;;2.42;2.22;;;;;;;;;;5031209;28;20405;-38
2023/01/31 01:13:37;;;;;;;7.80;4.30;;;;;;;;;;5032199;28;20037;-38
2023/01/31 01:16:07;;;;;;;6.20;3.20;;;;;;;;;;5032345;28;20080;-38
2023/01/31 01:18:34;;;;;;;8.35;4.30;;;;;;;;;;5064384;28;20087;-38
2023/01/31 01:21:06;;;;;;;12.13;5.07;;;;;;;;;;5064402;28;20033;-38
2023/01/31 01:23:31;;;;;;;8.07;3.70;;;;;;;;;;5064267;28;20021;-38
2023/01/31 01:25:57;;;;;;;9.18;4.20;;;;;;;;;;5032036;28;20442;-38
2023/01/31 01:28:22;;;;;;;9.35;5.40;;;;;;;;;;5031001;28;20029;-38
2023/01/31 01:30:48;;;;;;;13.35;6.22;;;;;;;;;;5032115;28;20144;-38
2023/01/31 01:33:13;;;;;;;6.93;4.30;;;;;;;;;;5032032;28;20033;-38
2023/01/31 01:35:38;;;;;;;7.07;3.63;;;;;;;;;;5032019;28;20035;-38
2023/01/31 01:38:04;;;;;;;7.40;3.80;;;;;;;;;;5032208;28;20029;-38
2023/01/31 01:40:36;;;;;;;7.65;3.65;;;;;;;;;;5031952;28;20025;-38
2023/01/31 01:43:02;;;;;;;7.32;3.80;;;;;;;;;;5064028;28;20033;-38
2023/01/31 01:45:28;;;;;;;10.18;4.80;;;;;;;;;;5031863;28;20044;-38
2023/01/31 01:47:55;;;;;;;10.23;3.33;;;;;;;;;;5031859;28;20030;-39
2023/01/31 01:50:35;;;;;;;5.55;3.60;;;;;;;;;;5032153;28;20473;-38
2023/01/31 01:53:03;;;;;;;7.25;3.72;;;;;;;;;;5030474;28;20033;-38
2023/01/31 01:55:34;;;;;;;5.60;4.63;;;;;;;;;;5031765;28;20040;-38
2023/01/31 01:58:08;;;;;;;7.57;3.90;;;;;;;;;;5031752;28;20033;-38
2023/01/31 02:00:33;;;;;;;;;;;;;;;;;;5032084;28;20582;-38
2023/01/31 02:03:00;;;;;;;5.63;3.33;;;;;;;;;;5031907;28;19920;-38
2023/01/31 02:05:31;;;;;;;6.45;3.80;;;;;;;;;;5031900;28;20040;-38
2023/01/31 02:07:57;;;;;;;10.50;5.20;;;;;;;;;;5031773;28;20036;-38
2023/01/31 02:10:25;;;;;;;14.23;5.13;;;;;;;;;;5030274;28;20025;-38
2023/01/31 02:12:50;;;;;;;12.27;5.75;;;;;;;;;;5031712;28;20021;-38
2023/01/31 02:15:16;;;;;;;14.30;7.32;;;;;;;;;;5030098;28;20033;-38
2023/01/31 02:17:41;;;;;;;24.70;6.90;;;;;;;;;;5031277;28;20484;-38
2023/01/31 02:20:19;;;;;;;14.55;6.88;;;;;;;;;;5030235;28;20033;-38
2023/01/31 02:22:51;;;;;;;13.32;5.13;;;;;;;;;;5031307;28;20499;-38
2023/01/31 02:25:34;;;;;;;6.90;5.28;;;;;;;;;;5046697;28;20030;-38
2023/01/31 02:28:07;;;;;;;12.07;7.35;;;;;;;;;;5046161;28;20041;-38
2023/01/31 02:30:42;;;;;;;9.73;5.67;;;;;;;;;;5031702;28;20423;-38
2023/01/31 02:33:20;;;;;;;18.15;7.25;;;;;;;;;;5031291;28;20509;-38
2023/01/31 02:36:03;;;;;;;15.63;8.45;;;;;;;;;;5031164;28;20036;-39
2023/01/31 02:38:38;;;;;;;18.42;8.32;;;;;;;;;;5030017;28;20029;-38
2023/01/31 02:41:04;;;;;;;16.23;7.47;;;;;;;;;;5029996;28;20056;-38
2023/01/31 02:44:58;;;;;;;13.55;8.52;;;;;;;;;;5029885;28;20028;-38
2023/01/31 02:46:34;;;;;;;26.33;10.60;;;;;;;;;;5029481;28;20037;-38
2023/01/31 02:49:10;;;;;;;21.30;10.00;;;;;;;;;;5046543;28;20031;-38
2023/01/31 02:51:40;;;;;;;16.50;7.80;;;;;;;;;;5031139;28;20479;-38
2023/01/31 02:54:19;;;;;;;19.33;9.07;;;;;;;;;;5029789;28;20049;-38
2023/01/31 02:56:46;;;;;;;33.67;11.88;;;;;;;;;;5031184;28;20383;-38
2023/01/31 02:59:24;;;;;;;14.75;8.38;;;;;;;;;;5029872;28;20029;-38
2023/01/31 03:01:54;;;;;;;28.38;9.73;;;;;;;;;;5063024;28;20029;-38
2023/01/31 03:04:20;;;;;;;10.68;6.15;;;;;;;;;;5029800;28;20037;-38
2023/01/31 03:06:53;;;;;;;15.13;8.77;;;;;;;;;;5029574;28;20036;-38
2023/01/31 03:09:27;;;;;;;16.63;8.23;;;;;;;;;;5029798;28;20033;-38
2023/01/31 03:12:11;;;;;;;11.18;5.80;;;;;;;;;;5030837;28;20029;-38
2023/01/31 03:14:50;;;;;;;13.05;6.95;;;;;;;;;;5062864;28;20066;-38
2023/01/31 03:17:31;;;;;;;16.00;7.65;;;;;;;;;;5031026;28;20025;-38
2023/01/31 03:20:13;;;;;;;17.13;7.57;;;;;;;;;;5030815;28;20029;-38
2023/01/31 03:22:40;;;;;;;13.90;6.80;;;;;;;;;;5029497;28;20033;-38
2023/01/31 03:25:08;;;;;;;14.82;6.00;;;;;;;;;;5029577;28;20108;-38
2023/01/31 03:27:34;;;;;;;21.65;6.75;;;;;;;;;;5029597;28;20507;-38
2023/01/31 03:30:09;;;;;;;15.55;6.38;;;;;;;;;;5046178;28;20021;-38
2023/01/31 03:32:41;;;;;;;15.88;6.78;;;;;;;;;;5030777;28;20121;-38
2023/01/31 03:35:08;;;;;;;19.67;7.40;;;;;;;;;;5029429;28;20091;-38
2023/01/31 03:37:44;;;;;;;14.73;7.53;;;;;;;;;;5062880;28;20036;-38
2023/01/31 03:40:18;;;;;;;14.00;7.97;;;;;;;;;;5065517;28;20118;-37
2023/01/31 03:42:43;;;;;;;12.32;6.90;;;;;;;;;;5049523;28;20033;-38
2023/01/31 03:45:18;;;;;;;10.18;5.15;;;;;;;;;;5032869;28;20464;-38
2023/01/31 03:47:45;;;;;;;14.25;6.40;;;;;;;;;;5066056;28;20041;-38
2023/01/31 03:50:17;;;;;;;21.90;7.35;;;;;;;;;;5032883;28;20021;-42
2023/01/31 03:52:47;;;;;;;16.85;8.63;;;;;;;;;;5034002;28;20033;-38
2023/01/31 03:55:15;;;;;;;14.80;5.45;;;;;;;;;;5065920;28;20095;-38
2023/01/31 03:57:41;;;;;;;12.60;4.95;;;;;;;;;;5065874;28;20026;-38
2023/01/31 04:00:08;;;;;;;12.70;5.80;;;;;;;;;;5066046;28;20022;-38
2023/01/31 04:02:40;;;;;;;;;;;;;;;;;;5034194;28;20038;-38
2023/01/31 04:05:08;;;;;;;11.57;5.63;;;;;;;;;;5049096;28;19939;-38
2023/01/31 04:07:36;;;;;;;15.98;6.28;;;;;;;;;;5032478;28;20115;-38
2023/01/31 04:10:08;;;;;;;12.25;7.07;;;;;;;;;;5032440;28;20121;-37
2023/01/31 04:12:36;;;;;;;12.70;5.43;;;;;;;;;;5033810;28;20037;-37
2023/01/31 04:15:03;;;;;;;12.57;6.65;;;;;;;;;;5033441;28;20095;-37
2023/01/31 04:17:28;;;;;;;16.33;6.85;;;;;;;;;;5032113;28;20033;-38
2023/01/31 04:19:54;;;;;;;12.13;6.40;;;;;;;;;;5033799;28;20429;-39
2023/01/31 04:22:19;;;;;;;11.10;5.05;;;;;;;;;;5033468;28;20555;-38
2023/01/31 04:24:44;;;;;;;20.90;6.97;;;;;;;;;;5033550;28;20021;-38
2023/01/31 04:27:10;;;;;;;9.50;5.30;;;;;;;;;;5032232;28;20581;-38
2023/01/31 04:29:35;;;;;;;9.55;5.05;;;;;;;;;;5033393;28;20024;-38
2023/01/31 04:32:00;;;;;;;8.48;4.72;;;;;;;;;;5033570;28;20052;-38
2023/01/31 04:34:26;;;;;;;11.02;5.45;;;;;;;;;;5033246;28;20038;-38
2023/01/31 04:36:51;;;;;;;13.73;4.07;;;;;;;;;;5033100;28;20053;-38
2023/01/31 04:39:16;;;;;;;9.90;4.90;;;;;;;;;;5033266;28;20021;-37
2023/01/31 04:41:42;;;;;;;9.13;5.63;;;;;;;;;;5033201;28;20033;-37
2023/01/31 04:44:07;;;;;;;11.40;6.00;;;;;;;;;;5033101;28;20048;-38
2023/01/31 04:46:32;;;;;;;10.45;4.97;;;;;;;;;;5033064;28;20029;-38
2023/01/31 04:48:58;;;;;;;10.38;5.10;;;;;;;;;;5033227;28;20105;-38
2023/01/31 04:51:23;;;;;;;15.98;6.43;;;;;;;;;;5032838;28;20028;-38
2023/01/31 04:53:49;;;;;;;7.65;4.38;;;;;;;;;;5033021;28;20050;-38
2023/01/31 04:56:14;;;;;;;12.95;6.03;;;;;;;;;;5032905;28;20033;-38
2023/01/31 04:58:40;;;;;;;8.85;4.78;;;;;;;;;;5032742;28;20052;-38
2023/01/31 05:01:06;;;;;;;13.23;4.55;;;;;;;;;;5032766;28;20037;-38
2023/01/31 05:03:31;;;;;;;15.05;4.30;;;;;;;;;;5032773;28;20021;-38
2023/01/31 05:05:56;;;;;;;6.28;4.53;;;;;;;;;;5032442;28;20037;-39
2023/01/31 05:08:22;;;;;;;14.55;5.43;;;;;;;;;;5032723;28;20028;-38
2023/01/31 05:10:47;;;;;;;13.13;5.53;;;;;;;;;;5032455;28;20061;-38
2023/01/31 05:13:13;;;;;;;12.88;4.97;;;;;;;;;;5032508;28;20088;-38
2023/01/31 05:15:39;;;;;;;7.05;4.80;;;;;;;;;;5032426;28;20033;-38
2023/01/31 05:18:04;;;;;;;11.48;4.15;;;;;;;;;;5032316;28;20114;-39
2023/01/31 05:20:30;;;;;;;7.18;5.05;;;;;;;;;;5032459;28;20044;-38
2023/01/31 05:22:57;;;;;;;8.65;4.10;;;;;;;;;;5032562;28;20048;-38
2023/01/31 05:25:22;;;;;;;16.38;4.75;;;;;;;;;;5032286;28;20036;-37
2023/01/31 05:27:48;;;;;;;9.82;4.70;;;;;;;;;;5032372;28;20029;-38
2023/01/31 05:30:13;;;;;;;12.18;6.18;;;;;;;;;;5032596;28;20533;-37
2023/01/31 05:32:38;;;;;;;13.00;5.05;;;;;;;;;;5032204;28;20052;-38
2023/01/31 05:35:04;;;;;;;7.72;4.03;;;;;;;;;;5032024;28;20124;-37
2023/01/31 05:37:30;;;;;;;11.20;5.47;;;;;;;;;;5032130;28;20424;-38
2023/01/31 05:39:55;;;;;;;5.65;3.35;;;;;;;;;;5032069;28;20034;-38
2023/01/31 05:42:21;;;;;;;4.22;3.13;;;;;;;;;;5032000;28;20021;-38
2023/01/31 05:44:46;;;;;;;12.88;4.93;;;;;;;;;;5032082;28;20040;-38
2023/01/31 05:47:11;;;;;;;10.73;6.30;;;;;;;;;;5030689;28;20017;-38
2023/01/31 05:49:37;;;;;;;15.70;5.72;;;;;;;;;;5031895;28;20170;-38
2023/01/31 05:52:02;;;;;;;14.93;6.47;;;;;;;;;;5031829;28;20101;-38
2023/01/31 05:54:28;;;;;;;15.45;5.68;;;;;;;;;;5031644;28;20475;-38
2023/01/31 05:56:54;;;;;;;6.18;3.78;;;;;;;;;;5032009;28;20107;-38
2023/01/31 05:59:19;;;;;;;7.03;3.15;;;;;;;;;;5031735;28;20468;-38
2023/01/31 06:01:44;;;;;;;12.65;5.32;;;;;;;;;;5031104;28;20030;-38
2023/01/31 06:04:10;;;;;;;17.30;8.13;;;;;;;;;;5031706;28;20088;-37
2023/01/31 06:06:35;;;;;;;16.77;6.45;;;;;;;;;;5030444;28;20108;-38
2023/01/31 06:09:01;;;;;;;10.15;5.15;;;;;;;;;;5031737;28;20025;-38
2023/01/31 06:11:26;;;;;;;10.20;5.10;;;;;;;;;;5031561;28;20459;-38
2023/01/31 06:13:56;;;;;;;10.75;5.53;;;;;;;;;;5031428;28;20091;-38
2023/01/31 06:16:22;;;;;;;5.43;2.60;;;;;;;;;;5031743;28;20029;-38
2023/01/31 06:18:47;;;;;;;10.02;5.07;;;;;;;;;;5031367;28;20049;-38
2023/01/31 06:21:15;;;;;;;23.67;7.63;;;;;;;;;;5031728;28;20048;-38
2023/01/31 06:23:44;;;;;;;17.58;5.55;;;;;;;;;;5031356;28;20033;-38
2023/01/31 06:26:10;;;;;;;12.73;5.43;;;;;;;;;;5031343;28;20029;-38
2023/01/31 06:28:35;;;;;;;14.95;7.05;;;;;;;;;;5031383;28;20084;-38
2023/01/31 06:31:05;;;;;;;11.43;4.43;;;;;;;;;;5031260;28;20091;-38
2023/01/31 06:33:30;;;;;;;7.55;5.03;;;;;;;;;;5031568;28;20033;-38
2023/01/31 06:35:58;;;;;;;10.13;5.68;;;;;;;;;;5031524;28;20055;-38
2023/01/31 06:38:23;;;;;;;9.23;5.53;;;;;;;;;;5031350;28;20026;-37
2023/01/31 06:40:48;;;;;;;13.07;5.72;;;;;;;;;;5031248;28;20036;-37
2023/01/31 06:43:14;;;;;;;15.30;6.15;;;;;;;;;;5031579;28;20041;-37
2023/01/31 06:45:41;;;;;;;10.10;5.00;;;;;;;;;;5031450;28;20035;-38
2023/01/31 06:48:06;;;;;;;11.07;6.07;;;;;;;;;;5031251;28;20037;-38
2023/01/31 06:50:32;;;;;;;11.32;8.05;;;;;;;;;;5031163;28;20028;-38
2023/01/31 06:52:58;;;;;;;11.98;4.93;;;;;;;;;;5031128;28;20391;-38
2023/01/31 06:55:23;;;;;;;10.05;6.05;;;;;;;;;;5031032;28;20029;-38
2023/01/31 06:57:49;;;;;;;10.30;5.07;;;;;;;;;;5031062;28;20104;-38
2023/01/31 07:00:15;;;;;;;8.73;4.95;;;;;;;;;;5031046;28;20029;-38
2023/01/31 07:02:40;;;;;;;6.47;3.75;;;;;;;;;;5031097;28;20064;-38
2023/01/31 07:05:06;;;;;;;11.32;4.72;;;;;;;;;;5031037;28;20026;-38
2023/01/31 07:07:31;;;;;;;9.27;3.15;;;;;;;;;;5031287;28;20025;-37
2023/01/31 07:09:57;;;;;;;8.90;3.20;;;;;;;;;;5029720;28;20433;-38
2023/01/31 07:12:22;;;;;;;16.98;3.60;;;;;;;;;;5031057;28;20022;-38
2023/01/31 07:14:47;;;;;;;9.07;3.25;;;;;;;;;;5034762;28;20043;-38
2023/01/31 07:17:13;;;;;;;8.65;5.18;;;;;;;;;;5034850;28;20395;-38
2023/01/31 07:19:38;;;;;;;12.50;4.65;;;;;;;;;;5035030;28;20383;-38
2023/01/31 07:22:03;;;;;;;8.57;3.78;;;;;;;;;;5034825;28;20422;-38
2023/01/31 07:24:29;;;;;;;7.65;3.63;;;;;;;;;;5034862;28;20383;-38
2023/01/31 07:26:54;;;;;;;6.00;3.15;;;;;;;;;;5034756;28;20033;-37
2023/01/31 07:29:19;;;;;;;7.47;4.30;;;;;;;;;;5034805;28;20301;-38
2023/01/31 07:31:45;;;;;;;8.50;2.92;;;;;;;;;;5034413;28;20033;-38
2023/01/31 07:34:10;;;;;;;7.25;3.67;;;;;;;;;;5033079;28;20426;-38
2023/01/31 07:36:36;;;;;;;8.95;4.18;;;;;;;;;;5034563;28;20426;-37
2023/01/31 07:39:01;;;;;;;15.05;4.50;;;;;;;;;;5033052;28;20039;-38
2023/01/31 07:41:26;;;;;;;11.20;5.47;;;;;;;;;;5034304;28;20025;-38
2023/01/31 07:43:52;;;;;;;4.97;2.80;;;;;;;;;;5034163;28;20025;-37
2023/01/31 07:46:17;;;;;;;7.50;3.53;;;;;;;;;;5034278;28;20099;-38
2023/01/31 07:48:43;;;;;;;6.95;3.72;;;;;;;;;;5034368;28;20029;-38
2023/01/31 07:51:09;;;;;;;3.72;3.05;;;;;;;;;;5034148;28;20432;-38
2023/01/31 07:53:35;;;;;;;7.75;2.60;;;;;;;;;;5033970;28;20033;-38
2023/01/31 07:56:14;;;;;;;6.35;3.55;;;;;;;;;;5033799;28;20069;-38
2023/01/31 07:58:40;;;;;;;4.72;2.47;;;;;;;;;;5034082;28;20472;-38
2023/01/31 08:03:50;;;;;;;4.57;3.15;;;;;;;;;;5034114;28;20564;-38
2023/01/31 08:06:15;;;;;;;5.43;3.63;;;;;;;;;;5033909;28;20021;-37
2023/01/31 08:08:42;;;;;;;7.63;2.95;;;;;;;;;;5033883;28;20040;-38
2023/01/31 08:11:08;;;;;;;6.95;3.00;;;;;;;;;;5033991;28;20040;-38
2023/01/31 08:13:34;;;;;;;2.13;1.83;;;;;;;;;;5033665;28;20475;-38
2023/01/31 08:16:00;;;;;;;4.20;2.13;;;;;;;;;;5033618;28;20037;-38
2023/01/31 08:18:25;;;;;;;2.78;2.15;;;;;;;;;;5033528;28;20057;-38
2023/01/31 08:20:51;;;;;;;7.88;3.00;;;;;;;;;;5033935;28;20120;-38
2023/01/31 08:23:16;;;;;;;4.28;2.33;;;;;;;;;;5033891;28;20031;-38
2023/01/31 08:25:42;;;;;;;10.02;3.58;;;;;;;;;;5032552;28;20075;-38
2023/01/31 08:28:07;;;;;;;5.57;3.05;;;;;;;;;;5065501;28;20029;-38
2023/01/31 08:30:33;;;;;;;9.32;2.30;;;;;;;;;;5033666;28;20026;-38
2023/01/31 08:32:59;;;;;;;6.43;3.10;;;;;;;;;;5033280;28;20061;-38
2023/01/31 08:35:25;;;;;;;4.45;2.78;;;;;;;;;;5033461;28;20641;-38
2023/01/31 08:37:50;;;;;;;7.20;3.20;;;;;;;;;;5033520;28;20025;-38
2023/01/31 08:40:16;;;;;;;5.10;2.22;;;;;;;;;;5033417;28;20078;-38
2023/01/31 08:42:41;;;;;;;6.18;3.22;;;;;;;;;;5033456;28;20356;-38
2023/01/31 08:45:07;;;;;;;4.97;3.15;;;;;;;;;;5033006;28;20028;-38
2023/01/31 08:47:32;;;;;;;3.17;2.58;;;;;;;;;;5033352;28;20032;-38
2023/01/31 08:49:58;;;;;;;3.45;2.45;;;;;;;;;;5032885;28;20529;-38
2023/01/31 08:52:23;;;;;;;8.10;3.00;;;;;;;;;;5033206;28;20057;-37
2023/01/31 08:54:49;;;;;;;4.97;2.88;;;;;;;;;;5032777;28;20671;-39
2023/01/31 08:57:14;;;;;;;5.10;3.80;;;;;;;;;;5032890;28;20030;-38
2023/01/31 08:59:39;;;;;;;5.47;2.88;;;;;;;;;;5033120;28;20023;-38
2023/01/31 09:02:05;;;;;;;4.97;2.50;;;;;;;;;;5032772;28;20472;-38
2023/01/31 09:04:30;;;;;;;5.35;2.83;;;;;;;;;;5033078;28;20037;-38
2023/01/31 09:06:56;;;;;;;4.07;2.65;;;;;;;;;;5032627;28;20131;-39
2023/01/31 09:09:21;;;;;;;14.20;3.33;;;;;;;;;;5032744;28;20485;-38
2023/01/31 09:11:46;;;;;;;4.40;3.35;;;;;;;;;;5032538;28;20434;-38
2023/01/31 09:14:13;;;;;;;3.95;2.47;;;;;;;;;;5031226;28;20072;-38
2023/01/31 09:16:38;;;;;;;3.67;2.88;;;;;;;;;;5032535;28;20033;-38
2023/01/31 09:19:04;;;;;;;4.05;2.13;;;;;;;;;;5032318;28;20083;-38
2023/01/31 09:21:29;;;;;;;4.38;2.53;;;;;;;;;;5032708;28;20419;-38
2023/01/31 09:23:56;;;;;;;8.73;2.78;;;;;;;;;;5032308;28;20028;-38
2023/01/31 09:26:21;;;;;;;7.50;3.67;;;;;;;;;;5032319;28;20029;-38
2023/01/31 09:28:48;;;;;;;4.50;2.20;;;;;;;;;;5032194;28;20128;-38
2023/01/31 09:31:15;;;;;;;8.70;3.13;;;;;;;;;;5032258;28;20116;-37
2023/01/31 09:33:40;;;;;;;3.60;2.63;;;;;;;;;;5032387;28;20025;-38
2023/01/31 09:36:07;;;;;;;7.07;2.47;;;;;;;;;;5032035;28;20048;-38
2023/01/31 09:38:33;;;;;;;3.72;2.15;;;;;;;;;;5064169;28;20025;-38
2023/01/31 09:41:00;;;;;;;3.60;2.22;;;;;;;;;;5032063;28;20044;-38
2023/01/31 09:43:29;;;;;;;8.45;3.30;;;;;;;;;;5032267;28;20025;-38
2023/01/31 09:45:57;;;;;;;10.98;3.15;;;;;;;;;;5031897;28;20044;-38
2023/01/31 09:48:24;;;;;;;5.95;3.28;;;;;;;;;;5032253;28;20084;-38
2023/01/31 09:50:54;;;;;;;4.30;2.50;;;;;;;;;;5031825;28;20033;-38
2023/01/31 09:53:21;;;;;;;5.63;1.63;;;;;;;;;;5031900;28;20468;-39
2023/01/31 09:55:46;;;;;;;4.80;2.75;;;;;;;;;;5031659;28;20505;-38
2023/01/31 09:58:27;;;;;;;6.28;2.90;;;;;;;;;;5031804;28;20048;-38
2023/01/31 10:01:00;;;;;;;5.22;3.13;;;;;;;;;;5030506;28;20029;-38
2023/01/31 10:03:32;;;;;;;3.58;2.05;;;;;;;;;;5031728;28;20034;-38
2023/01/31 10:06:02;;;;;;;5.57;2.75;;;;;;;;;;5031589;28;20025;-38
2023/01/31 10:08:29;;;;;;;7.97;3.17;;;;;;;;;;5031998;28;20414;-38
2023/01/31 10:10:57;;;;;;;9.18;2.90;;;;;;;;;;5031490;28;20041;-38
2023/01/31 10:13:30;;;;;;;7.88;3.83;;;;;;;;;;5031807;28;20034;-38
2023/01/31 10:16:01;;;;;;;3.47;2.53;;;;;;;;;;5031544;28;20040;-39
2023/01/31 10:18:29;;;;;;;4.18;2.50;;;;;;;;;;5031203;28;20045;-38
2023/01/31 10:21:04;;;;;;;9.23;4.50;;;;;;;;;;5031302;28;20095;-39
2023/01/31 10:23:32;;;;;;;6.90;3.97;;;;;;;;;;5031628;28;20037;-38
2023/01/31 10:26:01;;;;;;;11.32;3.05;;;;;;;;;;5031442;28;20076;-38
2023/01/31 10:28:30;;;;;;;8.70;3.38;;;;;;;;;;5031431;28;20057;-38
2023/01/31 10:30:55;;;;;;;13.25;3.63;;;;;;;;;;5031669;28;20051;-39
2023/01/31 10:33:27;;;;;;;6.95;2.97;;;;;;;;;;5031281;28;20539;-38
2023/01/31 10:35:54;;;;;;;13.05;4.88;;;;;;;;;;5031220;28;20120;-38
2023/01/31 10:38:22;;;;;;;7.15;3.80;;;;;;;;;;5031679;28;20060;-38
2023/01/31 10:40:50;;;;;;;7.05;3.65;;;;;;;;;;5031169;28;20557;-38
2023/01/31 10:43:21;;;;;;;9.18;4.63;;;;;;;;;;5063332;28;20029;-38
2023/01/31 10:45:47;;;;;;;5.00;2.45;;;;;;;;;;5031159;28;20064;-38
2023/01/31 10:48:12;;;;;;;7.80;3.20;;;;;;;;;;5032564;28;20025;-38
2023/01/31 10:50:42;;;;;;;8.50;4.00;;;;;;;;;;5035253;28;20025;-38
2023/01/31 10:53:15;;;;;;;10.05;3.45;;;;;;;;;;5035184;28;20039;-38
2023/01/31 10:55:41;;;;;;;8.20;4.57;;;;;;;;;;5035318;28;20033;-38
2023/01/31 10:58:12;;;;;;;8.07;3.80;;;;;;;;;;5033814;28;20021;-39
2023/01/31 11:00:37;;;;;;;5.30;2.53;;;;;;;;;;5035042;28;20109;-38
2023/01/31 11:03:03;;;;;;;6.75;3.38;;;;;;;;;;5034936;28;20483;-38
2023/01/31 11:05:29;;;;;;;6.47;2.60;;;;;;;;;;5034972;28;20026;-38
2023/01/31 11:07:56;;;;;;;3.85;2.70;;;;;;;;;;5034860;28;20475;-38
2023/01/31 11:10:26;;;;;;;5.15;3.28;;;;;;;;;;5035252;28;20041;-38
2023/01/31 11:12:54;;;;;;;5.05;2.70;;;;;;;;;;5035051;28;20041;-38
2023/01/31 11:15:22;;;;;;;6.65;2.95;;;;;;;;;;5034889;28;20095;-38
2023/01/31 11:17:48;;;;;;;8.38;3.03;;;;;;;;;;5034485;28;20530;-39
2023/01/31 11:20:22;;;;;;;8.23;3.20;;;;;;;;;;5035145;28;20383;-38
2023/01/31 11:22:48;;;;;;;12.20;3.97;;;;;;;;;;5034873;28;20061;-39
2023/01/31 11:25:21;;;;;;;6.47;2.95;;;;;;;;;;5034945;28;20508;-38
2023/01/31 11:27:47;;;;;;;10.32;3.38;;;;;;;;;;5034551;28;20040;-38
2023/01/31 11:30:33;;;;;;;9.65;3.97;;;;;;;;;;5034779;28;20026;-38
2023/01/31 11:32:59;;;;;;;10.25;4.13;;;;;;;;;;5034478;28;20037;-38
2023/01/31 11:35:28;;;;;;;7.97;3.90;;;;;;;;;;5034353;28;20041;-38
2023/01/31 11:38:19;;;;;;;8.52;4.18;;;;;;;;;;5034862;28;20025;-38
2023/01/31 11:40:44;;;;;;;9.52;4.35;;;;;;;;;;5034469;28;20029;-38
2023/01/31 11:43:12;;;;;;;5.45;3.17;;;;;;;;;;5034279;28;20157;-39
2023/01/31 11:45:41;;;;;;;7.20;3.65;;;;;;;;;;5034368;28;20471;-38
2023/01/31 11:48:23;;;;;;;15.50;5.05;;;;;;;;;;5034205;28;20071;-38
2023/01/31 11:50:51;;;;;;;8.05;2.85;;;;;;;;;;5034123;28;20033;-38
2023/01/31 11:53:21;;;;;;;6.72;4.50;;;;;;;;;;5034147;28;20052;-39
2023/01/31 11:55:47;;;;;;;14.48;4.10;;;;;;;;;;5034121;28;20073;-39
2023/01/31 11:58:16;;;;;;;9.02;4.88;;;;;;;;;;5033957;28;20032;-38
2023/01/31 12:00:58;;;;;;;13.40;3.25;;;;;;;;;;5032758;28;20041;-38
2023/01/31 12:03:24;;;;;;;7.78;2.67;;;;;;;;;;5034028;28;20133;-38
2023/01/31 12:05:57;;;;;;;6.90;3.13;;;;;;;;;;5033902;28;20025;-38
2023/01/31 12:08:25;;;;;;;1.33;1.23;;;;;;;;;;5033893;28;20446;-38
2023/01/31 12:10:51;;;;;;;10.52;4.22;;;;;;;;;;5034038;28;20379;-39
2023/01/31 12:13:18;;;;;;;6.75;4.30;;;;;;;;;;5033738;28;20082;-38
2023/01/31 12:15:49;;;;;;;4.75;2.47;;;;;;;;;;5033866;28;20032;-38
2023/01/31 12:18:19;;;;;;;9.48;3.72;;;;;;;;;;5033511;28;20064;-39
2023/01/31 12:20:52;;;;;;;4.88;3.85;;;;;;;;;;5033628;28;20030;-38
2023/01/31 12:23:23;;;;;;;9.05;4.35;;;;;;;;;;5033636;28;20029;-38
2023/01/31 12:26:00;;;;;;;6.43;3.38;;;;;;;;;;5033399;28;20033;-38
2023/01/31 12:28:31;;;;;;;7.43;3.30;;;;;;;;;;5033813;28;20029;-38
2023/01/31 12:31:16;;;;;;;9.40;2.97;;;;;;;;;;5033357;28;20119;-38
2023/01/31 12:33:47;;;;;;;6.47;3.58;;;;;;;;;;5033333;28;20026;-38
2023/01/31 12:36:33;;;;;;;5.45;2.80;;;;;;;;;;5033558;28;20033;-38
2023/01/31 12:39:14;;;;;;;8.77;3.97;;;;;;;;;;5033263;28;20479;-38
2023/01/31 12:41:42;;;;;;;6.35;3.25;;;;;;;;;;5065614;28;20464;-38
2023/01/31 12:44:27;;;;;;;7.65;3.47;;;;;;;;;;5033073;28;20021;-38
2023/01/31 12:47:15;;;;;;;10.85;2.85;;;;;;;;;;5033101;28;20033;-38
2023/01/31 12:49:51;;;;;;;4.28;2.38;;;;;;;;;;5004672;28;20041;-38
2023/01/31 12:52:23;;;;;;;3.70;2.42;;;;;;;;;;5032998;28;20029;-38
2023/01/31 12:54:51;;;;;;;12.85;3.83;;;;;;;;;;5032810;28;20076;-38
2023/01/31 12:57:20;;;;;;;7.95;3.95;;;;;;;;;;5032992;28;20041;-38
2023/01/31 13:00:05;;;;;;;9.68;4.45;;;;;;;;;;5032894;28;20468;-38
2023/01/31 13:02:33;;;;;;;8.73;3.08;;;;;;;;;;5033040;28;20152;-39
2023/01/31 13:05:19;;;;;;;12.88;3.38;;;;;;;;;;5032671;28;20068;-38
2023/01/31 13:08:12;;;;;;;5.60;3.13;;;;;;;;;;5022277;28;20407;-38
2023/01/31 13:10:43;;;;;;;7.10;3.03;;;;;;;;;;5025719;28;20095;-38
2023/01/31 13:13:13;;;;;;;4.90;2.50;;;;;;;;;;5032622;28;20025;-38
2023/01/31 13:15:51;;;;;;;6.40;3.42;;;;;;;;;;5032445;28;20059;-38
2023/01/31 13:18:18;;;;;;;3.42;2.30;;;;;;;;;;5032360;28;20061;-38
2023/01/31 13:21:10;;;;;;;8.15;3.10;;;;;;;;;;5032542;28;20071;-38
2023/01/31 13:23:41;;;;;;;5.97;3.97;;;;;;;;;;5028239;28;20401;-39
2023/01/31 13:26:13;;;;;;;2.80;2.40;;;;;;;;;;5032567;28;20033;-38
2023/01/31 13:28:47;;;;;;;5.90;2.60;;;;;;;;;;5032669;28;20057;-38
2023/01/31 13:31:24;;;;;;;8.23;2.97;;;;;;;;;;5032273;28;20033;-40
2023/01/31 13:34:22;;;;;;;3.47;3.17;;;;;;;;;;5032417;28;20053;-38
2023/01/31 13:36:52;;;;;;;6.25;2.20;;;;;;;;;;4998413;28;20041;-38
2023/01/31 13:39:34;;;;;;;8.85;3.72;;;;;;;;;;5032402;28;20095;-38
2023/01/31 13:41:59;;;;;;;6.65;2.42;;;;;;;;;;5032027;28;20479;-38
2023/01/31 13:44:25;;;;;;;6.70;2.97;;;;;;;;;;5031941;28;20090;-38
2023/01/31 13:46:50;;;;;;;5.38;2.50;;;;;;;;;;5031959;28;20084;-38
2023/01/31 13:49:20;;;;;;;3.78;1.90;;;;;;;;;;5032334;28;20031;-38
2023/01/31 13:51:49;;;;;;;2.15;1.65;;;;;;;;;;5031992;28;20104;-38
2023/01/31 13:54:17;;;;;;;6.47;2.33;;;;;;;;;;5031880;28;20040;-38
2023/01/31 13:56:46;;;;;;;6.95;2.38;;;;;;;;;;5031929;28;20108;-39
2023/01/31 13:59:17;;;;;;;2.25;1.85;;;;;;;;;;5031825;28;20545;-38
2023/01/31 14:01:45;;;;;;;4.90;2.30;;;;;;;;;;5031777;28;20360;-38
2023/01/31 14:04:11;;;;;;;3.25;2.08;;;;;;;;;;5031691;28;20196;-38
2023/01/31 14:06:54;;;;;;;8.07;2.70;;;;;;;;;;5031979;28;20030;-38
2023/01/31 14:09:26;;;;;;;2.00;1.08;;;;;;;;;;5031965;28;20105;-38
2023/01/31 14:11:52;;;;;;;4.65;1.40;;;;;;;;;;5031599;28;20112;-38
2023/01/31 14:14:40;;;;;;;9.40;2.03;;;;;;;;;;5031699;28;20052;-38
2023/01/31 14:17:09;;;;;;;3.45;1.98;;;;;;;;;;5023404;28;20041;-39
2023/01/31 14:19:44;;;;;;;4.90;2.60;;;;;;;;;;5031396;28;20054;-38
2023/01/31 14:22:15;;;;;;;2.47;1.58;;;;;;;;;;5031006;28;20104;-38
2023/01/31 14:24:52;;;;;;;6.30;2.38;;;;;;;;;;5031373;28;20086;-38
2023/01/31 14:27:19;;;;;;;3.38;1.05;;;;;;;;;;5031832;28;20037;-38
2023/01/31 14:29:45;;;;;;;7.50;3.05;;;;;;;;;;5031477;28;20144;-38
2023/01/31 14:32:15;;;;;;;4.70;1.60;;;;;;;;;;5031534;28;20421;-38
2023/01/31 14:34:46;;;;;;;1.85;1.30;;;;;;;;;;5031284;28;20114;-39
2023/01/31 14:37:25;;;;;;;8.85;3.03;;;;;;;;;;5031300;28;20063;-38
2023/01/31 14:40:08;;;;;;;6.10;2.42;;;;;;;;;;5031301;28;20159;-39
2023/01/31 14:42:42;;;;;;;2.38;1.50;;;;;;;;;;5031282;28;20475;-38
2023/01/31 14:45:26;;;;;;;3.85;1.88;;;;;;;;;;5031149;28;20605;-39
2023/01/31 14:48:14;;;;;;;4.75;1.85;;;;;;;;;;5031496;28;20025;-38
2023/01/31 14:50:42;;;;;;;4.32;2.15;;;;;;;;;;5031213;28;20064;-38